createdAt,value
2019-02-06T00:01:30.634Z,1009.40
2019-02-06T00:12:02.918Z,1009.33
2019-02-06T00:22:35.130Z,1009.31
2019-02-06T00:33:07.352Z,1009.25
2019-02-06T00:43:39.587Z,1009.29
2019-02-06T00:54:11.794Z,1009.33
2019-02-06T01:04:43.962Z,1009.41
2019-02-06T01:15:16.231Z,1009.40
2019-02-06T01:25:48.265Z,1009.38
2019-02-06T01:36:20.499Z,1009.50
2019-02-06T01:46:52.619Z,1009.38
2019-02-06T01:57:24.733Z,1009.30
2019-02-06T02:07:56.815Z,1009.29
2019-02-06T02:18:28.882Z,1009.19
2019-02-06T02:29:00.933Z,1009.08
2019-02-06T02:39:32.975Z,1008.98
2019-02-06T02:50:04.529Z,1008.97
2019-02-06T03:00:36.610Z,1008.91
2019-02-06T03:11:08.144Z,1008.80
2019-02-06T03:21:40.165Z,1008.86
2019-02-06T03:32:12.203Z,1008.72
2019-02-06T03:42:43.741Z,1008.67
2019-02-06T03:53:15.791Z,1008.72
2019-02-06T04:03:47.854Z,1008.71
2019-02-06T04:14:19.885Z,1008.64
2019-02-06T04:24:51.941Z,1008.56
2019-02-06T04:35:23.982Z,1008.46
2019-02-06T04:45:55.518Z,1008.53
2019-02-06T04:56:27.531Z,1008.38
2019-02-06T05:06:59.553Z,1008.46
2019-02-06T05:17:31.543Z,1008.45
2019-02-06T05:28:03.541Z,1008.45
2019-02-06T05:38:35.542Z,1008.40
2019-02-06T05:49:07.606Z,1008.42
2019-02-06T05:59:39.121Z,1008.33
2019-02-06T06:10:10.654Z,1008.37
2019-02-06T06:20:42.176Z,1008.39
2019-02-06T06:31:13.708Z,1008.34
2019-02-06T06:41:45.276Z,1008.29
2019-02-06T06:52:16.859Z,1008.42
2019-02-06T07:02:48.458Z,1008.37
2019-02-06T07:13:20.050Z,1008.43
2019-02-06T07:23:51.875Z,1008.46
2019-02-06T07:34:23.513Z,1008.41
2019-02-06T07:44:55.160Z,1008.46
2019-02-06T07:55:26.859Z,1008.49
2019-02-06T08:05:58.571Z,1008.41
2019-02-06T08:16:30.301Z,1008.57
2019-02-06T08:27:02.070Z,1008.61
2019-02-06T08:37:33.869Z,1008.63
2019-02-06T08:48:05.681Z,1008.59
2019-02-06T08:58:37.533Z,1008.56
2019-02-06T09:09:09.441Z,1008.50
2019-02-06T09:19:41.370Z,1008.48
2019-02-06T09:30:13.334Z,1008.37
2019-02-06T09:40:45.346Z,1008.13
2019-02-06T09:51:19.328Z,1007.99
2019-02-06T09:52:28.887Z,1008.00
2019-02-06T09:53:38.735Z,1007.93
2019-02-06T09:54:49.384Z,1007.88
2019-02-06T09:56:00.043Z,1007.88
2019-02-06T09:57:10.721Z,1007.87
2019-02-06T09:58:21.358Z,1007.80
2019-02-06T09:59:32.011Z,1007.77
2019-02-06T10:00:42.690Z,1007.82
2019-02-06T10:01:53.339Z,1007.83
2019-02-06T10:03:03.991Z,1007.75
2019-02-06T10:04:14.641Z,1007.68
2019-02-06T10:05:25.299Z,1007.72
2019-02-06T10:06:35.960Z,1007.68
2019-02-06T10:07:46.612Z,1007.63
2019-02-06T10:08:57.269Z,1007.60
2019-02-06T10:10:07.928Z,1007.62
2019-02-06T10:11:18.600Z,1007.47
2019-02-06T10:12:29.245Z,1007.41
2019-02-06T10:13:39.894Z,1007.38
2019-02-06T10:14:50.553Z,1007.30
2019-02-06T10:16:01.213Z,1007.31
2019-02-06T10:17:11.865Z,1007.33
2019-02-06T10:18:22.525Z,1007.27
2019-02-06T10:19:33.200Z,1007.19
2019-02-06T10:20:43.859Z,1007.18
2019-02-06T10:21:54.524Z,1007.16
2019-02-06T10:23:05.185Z,1007.17
2019-02-06T10:24:18.888Z,1007.12
2019-02-06T10:25:26.537Z,1007.16
2019-02-06T10:26:37.225Z,1007.08
2019-02-06T10:27:47.893Z,1007.10
2019-02-06T10:28:59.560Z,1007.10
2019-02-06T10:30:10.217Z,1007.04
2019-02-06T10:31:20.884Z,1007.03
2019-02-06T10:32:31.561Z,1006.96
2019-02-06T10:33:42.225Z,1006.98
2019-02-06T10:34:52.891Z,1006.97
2019-02-06T10:36:04.048Z,1006.93
2019-02-06T10:37:14.729Z,1006.97
2019-02-06T10:38:25.409Z,1006.88
2019-02-06T10:48:57.806Z,1006.72
2019-02-06T10:50:08.634Z,1006.66
2019-02-06T10:51:19.304Z,1006.65
2019-02-06T10:52:29.975Z,1006.62
2019-02-06T10:53:40.648Z,1006.59
2019-02-06T10:54:51.322Z,1006.59
2019-02-06T10:56:02.003Z,1006.54
2019-02-06T10:57:12.675Z,1006.45
2019-02-06T10:58:23.357Z,1006.48
2019-02-06T10:59:34.026Z,1006.40
2019-02-06T11:00:44.708Z,1006.40
2019-02-06T11:01:55.397Z,1006.34
2019-02-06T11:03:06.076Z,1006.33
2019-02-06T11:04:16.855Z,1006.33
2019-02-06T11:05:27.437Z,1006.25
2019-02-06T11:06:38.125Z,1006.22
2019-02-06T11:07:49.815Z,1006.22
2019-02-06T11:09:00.503Z,1006.19
2019-02-06T11:10:11.208Z,1006.16
2019-02-06T11:11:21.892Z,1006.14
2019-02-06T11:12:32.611Z,1006.09
2019-02-06T11:13:43.293Z,1006.06
2019-02-06T11:14:53.983Z,1005.95
2019-02-06T11:16:04.693Z,1005.88
2019-02-06T11:17:15.389Z,1005.74
2019-02-06T11:18:26.073Z,1005.70
2019-02-06T11:19:36.761Z,1005.64
2019-02-06T11:20:47.458Z,1005.65
2019-02-06T11:21:58.154Z,1005.58
2019-02-06T11:23:08.845Z,1005.55
2019-02-06T11:24:19.533Z,1005.44
2019-02-06T11:25:30.228Z,1005.45
2019-02-06T11:26:41.116Z,1005.44
2019-02-06T11:27:51.811Z,1005.45
2019-02-06T11:29:02.507Z,1005.35
2019-02-06T11:30:13.327Z,1005.29
2019-02-06T11:31:23.897Z,1005.26
2019-02-06T11:32:34.586Z,1005.25
2019-02-06T11:33:45.280Z,1005.29
2019-02-06T11:34:55.980Z,1005.26
2019-02-06T11:36:07.164Z,1005.27
2019-02-06T11:37:17.865Z,1005.22
2019-02-06T11:38:28.571Z,1005.13
2019-02-06T11:39:39.259Z,1005.14
2019-02-06T11:40:49.966Z,1005.04
2019-02-06T11:42:00.668Z,1005.00
2019-02-06T11:43:11.366Z,1004.94
2019-02-06T11:44:22.060Z,1004.98
2019-02-06T11:45:32.767Z,1004.81
2019-02-06T11:46:43.479Z,1004.58
2019-02-06T11:47:54.187Z,1004.42
2019-02-06T11:49:04.904Z,1004.19
2019-02-06T11:50:15.614Z,1003.89
2019-02-06T11:51:26.308Z,1003.69
2019-02-06T11:52:37.017Z,1003.38
2019-02-06T11:53:47.735Z,1003.10
2019-02-06T11:54:58.443Z,1002.83
2019-02-06T11:56:09.161Z,1002.68
2019-02-06T11:57:19.896Z,1002.51
2019-02-06T11:58:30.650Z,1002.40
2019-02-06T11:59:41.415Z,1002.17
2019-02-06T12:00:52.185Z,1001.93
2019-02-06T12:02:02.977Z,1001.74
2019-02-06T12:03:14.274Z,1001.47
2019-02-06T12:04:25.083Z,1001.31
2019-02-06T12:05:35.925Z,1001.08
2019-02-06T12:06:46.775Z,1000.95
2019-02-06T12:07:57.661Z,1000.78
2019-02-06T12:09:08.557Z,1000.63
2019-02-06T12:10:19.457Z,1000.52
2019-02-06T12:11:30.359Z,1000.28
2019-02-06T12:12:41.258Z,1000.31
2019-02-06T12:13:52.165Z,1000.44
2019-02-06T12:15:03.081Z,1000.70
2019-02-06T12:16:14.048Z,1000.91
2019-02-06T12:17:24.919Z,1001.02
2019-02-06T12:18:35.832Z,1001.08
2019-02-06T12:19:46.792Z,1000.97
2019-02-06T12:20:57.729Z,1000.98
2019-02-06T12:22:08.674Z,1000.81
2019-02-06T12:23:31.610Z,1000.70
2019-02-06T12:24:30.586Z,1000.61
2019-02-06T12:25:41.550Z,1000.36
2019-02-06T12:26:52.525Z,1000.22
2019-02-06T12:28:05.189Z,1000.26
2019-02-06T12:29:14.480Z,1000.11
2019-02-06T12:30:25.954Z,1000.28
2019-02-06T12:31:36.930Z,1000.34
2019-02-06T12:32:52.331Z,1000.36
2019-02-06T12:33:58.901Z,1000.32
2019-02-06T12:35:09.888Z,1000.27
2019-02-06T12:36:20.871Z,1000.33
2019-02-06T12:37:31.851Z,1000.37
2019-02-06T12:38:53.095Z,1000.47
2019-02-06T12:39:54.305Z,1000.50
2019-02-06T12:41:05.276Z,1000.57
2019-02-06T12:42:16.272Z,1000.67
2019-02-06T12:43:27.261Z,1000.76
2019-02-06T12:44:38.237Z,1000.81
2019-02-06T12:45:49.687Z,1000.80
2019-02-06T12:47:01.145Z,1000.83
2019-02-06T12:48:12.614Z,1000.76
2019-02-06T12:49:23.561Z,1000.69
2019-02-06T12:50:34.998Z,1000.79
2019-02-06T12:51:45.935Z,1000.94
2019-02-06T12:52:57.630Z,1001.14
2019-02-06T12:54:07.790Z,1001.28
2019-02-06T12:55:19.602Z,1001.33
2019-02-06T12:56:29.641Z,1001.45
2019-02-06T12:57:40.559Z,1001.48
2019-02-06T12:58:51.470Z,1001.61
2019-02-06T13:00:02.931Z,1001.59
2019-02-06T13:01:13.848Z,1001.60
2019-02-06T13:02:24.738Z,1001.61
2019-02-06T13:03:35.646Z,1001.54
2019-02-06T13:04:46.540Z,1001.66
2019-02-06T13:05:57.430Z,1001.82
2019-02-06T13:07:08.307Z,1001.92
2019-02-06T13:08:19.188Z,1002.07
2019-02-06T13:09:30.102Z,1002.27
2019-02-06T13:10:40.936Z,1002.37
2019-02-06T13:11:51.806Z,1002.41
2019-02-06T13:13:02.679Z,1002.52
2019-02-06T13:14:13.539Z,1002.65
2019-02-06T13:15:24.423Z,1002.67
2019-02-06T13:16:35.802Z,1002.71
2019-02-06T13:17:46.700Z,1002.65
2019-02-06T13:18:57.568Z,1002.66
2019-02-06T13:20:08.437Z,1002.59
2019-02-06T13:21:19.306Z,1002.54
2019-02-06T13:22:30.354Z,1002.39
2019-02-06T13:23:41.227Z,1002.34
2019-02-06T13:24:52.131Z,1002.27
2019-02-06T13:26:03.014Z,1002.30
2019-02-06T13:27:13.889Z,1002.40
2019-02-06T13:28:24.769Z,1002.42
2019-02-06T13:29:35.638Z,1002.48
2019-02-06T13:30:46.720Z,1002.51
2019-02-06T13:31:57.596Z,1002.60
2019-02-06T13:33:11.583Z,1002.59
2019-02-06T13:34:19.517Z,1002.68
2019-02-06T13:35:30.390Z,1002.75
2019-02-06T13:36:41.285Z,1002.86
2019-02-06T13:37:52.148Z,1002.88
2019-02-06T13:39:03.021Z,1002.87
2019-02-06T13:40:13.881Z,1002.83
2019-02-06T13:41:24.749Z,1002.81
2019-02-06T13:42:35.680Z,1002.81
2019-02-06T13:43:46.996Z,1002.74
2019-02-06T13:44:57.843Z,1002.74
2019-02-06T13:46:08.765Z,1002.74
2019-02-06T13:47:19.615Z,1002.74
2019-02-06T13:48:33.565Z,1002.84
2019-02-06T13:49:41.459Z,1002.90
2019-02-06T13:50:52.308Z,1002.88
2019-02-06T13:52:03.157Z,1002.87
2019-02-06T13:53:14.006Z,1002.87
2019-02-06T13:54:24.826Z,1002.83
2019-02-06T13:55:35.708Z,1002.82
2019-02-06T13:56:46.582Z,1002.80
2019-02-06T13:57:57.413Z,1002.81
2019-02-06T13:59:08.232Z,1002.79
2019-02-06T14:00:19.044Z,1002.81
2019-02-06T14:01:29.936Z,1002.85
2019-02-06T14:02:40.779Z,1002.88
2019-02-06T14:03:51.630Z,1003.01
2019-02-06T14:05:02.408Z,1003.08
2019-02-06T14:06:13.234Z,1003.17
2019-02-06T14:07:24.055Z,1003.26
2019-02-06T14:08:34.982Z,1003.23
2019-02-06T14:09:46.796Z,1003.18
2019-02-06T14:11:00.710Z,1003.20
2019-02-06T14:12:08.426Z,1003.22
2019-02-06T14:13:19.225Z,1003.20
2019-02-06T14:14:30.040Z,1003.19
2019-02-06T14:15:40.859Z,1003.17
2019-02-06T14:16:52.133Z,1003.11
2019-02-06T14:18:02.937Z,1003.06
2019-02-06T14:19:14.234Z,1003.08
2019-02-06T14:20:25.047Z,1003.06
2019-02-06T14:21:35.865Z,1003.04
2019-02-06T14:22:46.688Z,1003.07
2019-02-06T14:23:57.502Z,1003.05
2019-02-06T14:25:08.309Z,1003.07
2019-02-06T14:26:19.130Z,1002.92
2019-02-06T14:27:29.953Z,1002.86
2019-02-06T14:28:45.020Z,1002.66
2019-02-06T14:29:51.589Z,1002.54
2019-02-06T14:31:02.406Z,1002.41
2019-02-06T14:32:15.575Z,1002.34
2019-02-06T14:33:24.066Z,1002.20
2019-02-06T14:34:35.419Z,1002.18
2019-02-06T14:35:46.774Z,1002.10
2019-02-06T14:36:57.594Z,1002.13
2019-02-06T14:38:08.442Z,1002.15
2019-02-06T14:39:20.129Z,1002.14
2019-02-06T14:40:30.099Z,1002.17
2019-02-06T14:41:40.941Z,1002.01
2019-02-06T14:42:51.760Z,1001.80
2019-02-06T14:44:03.117Z,1001.51
2019-02-06T14:45:14.512Z,1001.41
2019-02-06T14:46:25.348Z,1001.31
2019-02-06T14:47:36.185Z,1001.25
2019-02-06T14:48:47.022Z,1001.05
2019-02-06T14:49:57.855Z,1000.83
2019-02-06T14:51:08.698Z,1000.51
2019-02-06T14:52:20.022Z,1000.35
2019-02-06T14:53:30.867Z,1000.30
2019-02-06T14:54:41.698Z,1000.27
2019-02-06T14:55:53.036Z,1000.22
2019-02-06T14:57:03.870Z,1000.11
2019-02-06T14:58:14.714Z,1000.08
2019-02-06T14:59:25.557Z,1000.05
2019-02-06T15:00:36.388Z,1000.06
2019-02-06T15:01:47.707Z,1000.11
2019-02-06T15:02:58.582Z,1000.12
2019-02-06T15:04:09.416Z,1000.13
2019-02-06T15:05:20.242Z,1000.08
2019-02-06T15:06:31.564Z,1000.02
2019-02-06T15:07:42.886Z,999.97
2019-02-06T15:08:53.720Z,999.91
2019-02-06T15:10:04.535Z,999.98
2019-02-06T15:11:19.601Z,1000.01
2019-02-06T15:12:26.675Z,1000.01
2019-02-06T15:13:38.057Z,1000.03
2019-02-06T15:14:48.884Z,1000.10
2019-02-06T15:16:00.202Z,1000.12
2019-02-06T15:17:11.031Z,1000.14
2019-02-06T15:18:21.862Z,1000.10
2019-02-06T15:19:32.703Z,1000.21
2019-02-06T15:20:43.531Z,1000.32
2019-02-06T15:21:54.364Z,1000.45
2019-02-06T15:23:05.192Z,1000.53
2019-02-06T15:24:17.514Z,1000.54
2019-02-06T15:25:31.084Z,1000.61
2019-02-06T15:26:39.679Z,1000.68
2019-02-06T15:27:50.497Z,1000.78
2019-02-06T15:29:01.324Z,1000.96
2019-02-06T15:30:12.154Z,1001.11
2019-02-06T15:31:22.975Z,1001.25
2019-02-06T15:32:33.796Z,1001.40
2019-02-06T15:33:44.612Z,1001.64
2019-02-06T15:34:56.026Z,1001.72
2019-02-06T15:36:07.281Z,1001.80
2019-02-06T15:37:18.094Z,1001.86
2019-02-06T15:38:28.902Z,1001.95
2019-02-06T15:39:40.203Z,1002.10
2019-02-06T15:40:51.527Z,1002.21
2019-02-06T15:42:02.325Z,1002.30
2019-02-06T15:43:13.621Z,1002.45
2019-02-06T15:44:24.415Z,1002.61
2019-02-06T15:45:35.202Z,1002.69
2019-02-06T15:46:46.307Z,1002.79
2019-02-06T15:47:57.081Z,1002.89
2019-02-06T15:49:08.390Z,1002.99
2019-02-06T15:50:26.483Z,1003.05
2019-02-06T15:51:30.936Z,1003.10
2019-02-06T15:52:41.716Z,1003.15
2019-02-06T15:53:53.004Z,1003.17
2019-02-06T15:55:03.751Z,1003.18
2019-02-06T15:56:14.574Z,1003.31
2019-02-06T15:57:25.373Z,1003.40
2019-02-06T15:58:36.131Z,1003.46
2019-02-06T15:59:46.894Z,1003.49
2019-02-06T16:00:57.672Z,1003.50
2019-02-06T16:02:08.914Z,1003.59
2019-02-06T16:03:19.670Z,1003.65
2019-02-06T16:04:30.447Z,1003.67
2019-02-06T16:05:41.693Z,1003.69
2019-02-06T16:06:52.445Z,1003.77
2019-02-06T16:09:14.416Z,1003.88
2019-02-06T16:10:25.174Z,1003.91
2019-02-06T16:11:42.493Z,1004.00
2019-02-06T16:12:47.130Z,1004.02
2019-02-06T16:13:57.861Z,1004.08
2019-02-06T16:15:08.591Z,1004.07
2019-02-06T16:16:19.335Z,1004.10
2019-02-06T16:17:30.061Z,1004.11
2019-02-06T16:18:40.786Z,1004.13
2019-02-06T16:19:51.521Z,1004.03
2019-02-06T16:21:02.737Z,1004.01
2019-02-06T16:22:13.471Z,1004.04
2019-02-06T16:23:24.179Z,1004.04
2019-02-06T16:24:35.397Z,1004.06
2019-02-06T16:25:46.133Z,1004.03
2019-02-06T16:26:56.842Z,1003.99
2019-02-06T16:28:07.565Z,1003.99
2019-02-06T16:29:18.261Z,1003.94
2019-02-06T16:30:29.006Z,1004.00
2019-02-06T16:31:39.716Z,1004.05
2019-02-06T16:32:50.420Z,1004.12
2019-02-06T16:34:01.133Z,1004.11
2019-02-06T16:35:11.849Z,1004.11
2019-02-06T16:36:22.658Z,1004.16
2019-02-06T16:37:33.415Z,1004.16
2019-02-06T16:38:44.154Z,1004.20
2019-02-06T16:39:55.855Z,1004.19
2019-02-06T16:41:06.552Z,1004.22
2019-02-06T16:42:17.256Z,1004.17
2019-02-06T16:43:28.445Z,1004.14
2019-02-06T16:44:39.137Z,1004.13
2019-02-06T16:45:50.327Z,1004.14
2019-02-06T16:47:01.018Z,1004.13
2019-02-06T16:48:11.699Z,1004.08
2019-02-06T16:49:22.385Z,1004.03
2019-02-06T16:50:33.074Z,1004.10
2019-02-06T16:51:44.218Z,1004.09
2019-02-06T16:52:54.900Z,1004.04
2019-02-06T16:54:05.584Z,1004.04
2019-02-06T16:55:16.259Z,1004.15
2019-02-06T16:56:26.934Z,1004.15
2019-02-06T16:57:37.610Z,1004.13
2019-02-06T16:58:48.286Z,1004.14
2019-02-06T16:59:59.458Z,1004.12
2019-02-06T17:01:10.141Z,1004.13
2019-02-06T17:02:20.822Z,1004.11
2019-02-06T17:03:31.494Z,1004.12
2019-02-06T17:04:42.733Z,1004.11
2019-02-06T17:05:53.425Z,1004.08
2019-02-06T17:07:04.102Z,1004.13
2019-02-06T17:08:14.770Z,1004.20
2019-02-06T17:09:25.528Z,1004.18
2019-02-06T17:10:36.204Z,1004.20
2019-02-06T17:11:46.876Z,1004.13
2019-02-06T17:12:57.540Z,1004.14
2019-02-06T17:14:08.202Z,1004.15
2019-02-06T17:15:19.426Z,1004.13
2019-02-06T17:16:30.686Z,1004.16
2019-02-06T17:17:41.351Z,1004.17
2019-02-06T17:18:52.012Z,1004.19
2019-02-06T17:20:02.692Z,1004.15
2019-02-06T17:21:13.355Z,1004.12
2019-02-06T17:22:24.053Z,1004.12
2019-02-06T17:23:34.723Z,1004.09
2019-02-06T17:24:45.382Z,1004.09
2019-02-06T17:25:56.059Z,1004.10
2019-02-06T17:27:07.248Z,1004.07
2019-02-06T17:28:17.921Z,1004.04
2019-02-06T17:29:28.571Z,1004.00
2019-02-06T17:30:39.235Z,1003.97
2019-02-06T17:31:50.430Z,1004.00
2019-02-06T17:33:01.618Z,1004.01
2019-02-06T17:34:12.761Z,1004.08
2019-02-06T17:35:23.411Z,1004.05
2019-02-06T17:36:34.069Z,1004.03
2019-02-06T17:37:44.714Z,1004.06
2019-02-06T17:38:55.396Z,1004.04
2019-02-06T17:40:06.346Z,1004.00
2019-02-06T17:41:17.994Z,1004.01
2019-02-06T17:42:28.661Z,1004.03
2019-02-06T17:43:39.312Z,1004.01
2019-02-06T17:44:49.974Z,1003.98
2019-02-06T17:46:00.626Z,1003.97
2019-02-06T17:47:11.286Z,1003.93
2019-02-06T17:48:22.032Z,1003.93
2019-02-06T17:49:32.695Z,1003.88
2019-02-06T17:50:43.352Z,1003.95
2019-02-06T17:51:54.003Z,1003.91
2019-02-06T17:53:04.647Z,1003.92
2019-02-06T17:54:15.793Z,1003.84
2019-02-06T17:55:26.445Z,1003.86
2019-02-06T17:56:37.097Z,1003.87
2019-02-06T17:57:47.806Z,1003.84
2019-02-06T17:58:58.735Z,1003.86
2019-02-06T18:00:09.375Z,1003.87
2019-02-06T18:01:20.047Z,1003.85
2019-02-06T18:02:30.704Z,1003.81
2019-02-06T18:03:41.340Z,1003.77
2019-02-06T18:04:51.987Z,1003.78
2019-02-06T18:06:02.634Z,1003.78
2019-02-06T18:07:13.272Z,1003.74
2019-02-06T18:08:23.999Z,1003.69
2019-02-06T18:09:34.649Z,1003.71
2019-02-06T18:10:45.280Z,1003.71
2019-02-06T18:11:55.916Z,1003.66
2019-02-06T18:13:06.564Z,1003.67
2019-02-06T18:14:17.203Z,1003.66
2019-02-06T18:15:28.342Z,1003.70
2019-02-06T18:16:39.502Z,1003.72
2019-02-06T18:17:50.624Z,1003.73
2019-02-06T18:19:01.769Z,1003.73
2019-02-06T18:20:12.891Z,1003.80
2019-02-06T18:21:23.531Z,1003.80
2019-02-06T18:22:34.671Z,1003.80
2019-02-06T18:23:45.807Z,1003.82
2019-02-06T18:24:56.949Z,1003.80
2019-02-06T18:26:08.080Z,1003.75
2019-02-06T18:27:19.216Z,1003.75
2019-02-06T18:28:30.354Z,1003.71
2019-02-06T18:29:41.486Z,1003.74
2019-02-06T18:30:52.138Z,1003.74
2019-02-06T18:32:03.353Z,1003.76
2019-02-06T18:33:14.493Z,1003.75
2019-02-06T18:34:25.630Z,1003.72
2019-02-06T18:35:36.761Z,1003.74
2019-02-06T18:36:47.891Z,1003.72
2019-02-06T18:37:59.022Z,1003.68
2019-02-06T18:39:10.186Z,1003.64
2019-02-06T18:40:22.931Z,1003.58
2019-02-06T18:41:31.956Z,1003.58
2019-02-06T18:42:43.136Z,1003.51
2019-02-06T18:43:54.276Z,1003.54
2019-02-06T18:45:04.922Z,1003.50
2019-02-06T18:46:15.639Z,1003.50
2019-02-06T18:47:26.786Z,1003.48
2019-02-06T18:48:37.912Z,1003.53
2019-02-06T18:49:49.091Z,1003.50
2019-02-06T18:51:00.226Z,1003.48
2019-02-06T18:52:20.232Z,1003.49
2019-02-06T18:53:22.051Z,1003.50
2019-02-06T18:54:33.118Z,1003.47
2019-02-06T18:55:44.251Z,1003.43
2019-02-06T18:56:54.883Z,1003.43
2019-02-06T18:58:06.015Z,1003.46
2019-02-06T18:59:17.142Z,1003.43
2019-02-06T19:00:28.304Z,1003.47
2019-02-06T19:01:39.396Z,1003.48
2019-02-06T19:02:50.016Z,1003.47
2019-02-06T19:04:01.218Z,1003.49
2019-02-06T19:05:12.433Z,1003.47
2019-02-06T19:06:23.553Z,1003.48
2019-02-06T19:07:34.186Z,1003.45
2019-02-06T19:08:45.272Z,1003.36
2019-02-06T19:09:55.899Z,1003.35
2019-02-06T19:11:07.048Z,1003.32
2019-02-06T19:12:18.178Z,1003.32
2019-02-06T19:13:29.287Z,1003.26
2019-02-06T19:14:40.403Z,1003.28
2019-02-06T19:15:56.552Z,1003.30
2019-02-06T19:17:02.326Z,1003.24
2019-02-06T19:18:13.470Z,1003.26
2019-02-06T19:19:25.709Z,1003.22
2019-02-06T19:20:35.872Z,1003.20
2019-02-06T19:21:46.879Z,1003.19
2019-02-06T19:22:57.997Z,1003.10
2019-02-06T19:24:09.116Z,1003.13
2019-02-06T19:25:20.228Z,1003.09
2019-02-06T19:26:32.364Z,1003.05
2019-02-06T19:27:43.473Z,1003.06
2019-02-06T19:28:54.641Z,1002.99
2019-02-06T19:30:05.772Z,1002.98
2019-02-06T19:31:16.916Z,1002.96
2019-02-06T19:32:28.070Z,1003.01
2019-02-06T19:33:39.172Z,1003.01
2019-02-06T19:34:50.363Z,1003.06
2019-02-06T19:36:01.478Z,1003.07
2019-02-06T19:37:12.621Z,1003.03
2019-02-06T19:38:23.245Z,1003.04
2019-02-06T19:39:34.355Z,1003.03
2019-02-06T19:40:45.482Z,1003.03
2019-02-06T19:42:11.084Z,1003.01
2019-02-06T19:43:22.206Z,1003.00
2019-02-06T19:44:33.321Z,1002.99
2019-02-06T19:45:43.942Z,1002.97
2019-02-06T19:46:55.055Z,1002.94
2019-02-06T19:48:15.534Z,1003.00
2019-02-06T19:49:16.876Z,1002.98
2019-02-06T19:50:28.008Z,1003.01
2019-02-06T19:51:39.154Z,1003.02
2019-02-06T19:52:50.269Z,1003.05
2019-02-06T19:54:01.391Z,1003.12
2019-02-06T19:55:12.634Z,1003.14
2019-02-06T19:56:23.761Z,1003.19
2019-02-06T19:57:34.990Z,1003.16
2019-02-06T19:58:46.110Z,1003.21
2019-02-06T19:59:57.280Z,1003.20
2019-02-06T20:01:08.396Z,1003.20
2019-02-06T20:02:19.513Z,1003.20
2019-02-06T20:03:30.631Z,1003.23
2019-02-06T20:04:42.750Z,1003.18
2019-02-06T20:05:53.864Z,1003.17
2019-02-06T20:07:05.092Z,1003.13
2019-02-06T20:08:16.089Z,1003.08
2019-02-06T20:09:27.207Z,1003.01
2019-02-06T20:10:39.286Z,1002.97
2019-02-06T20:11:50.397Z,1002.94
2019-02-06T20:13:10.571Z,1002.90
2019-02-06T20:14:12.712Z,1002.81
2019-02-06T20:15:23.883Z,1002.79
2019-02-06T20:16:34.654Z,1002.77
2019-02-06T20:17:45.764Z,1002.71
2019-02-06T20:18:56.866Z,1002.67
2019-02-06T20:20:07.994Z,1002.66
2019-02-06T20:21:19.101Z,1002.66
2019-02-06T20:22:30.216Z,1002.60
2019-02-06T20:23:40.948Z,1002.61
2019-02-06T20:24:52.025Z,1002.48
2019-02-06T20:26:03.182Z,1002.47
2019-02-06T20:27:14.306Z,1002.47
2019-02-06T20:28:25.433Z,1002.43
2019-02-06T20:29:36.572Z,1002.43
2019-02-06T20:30:47.734Z,1002.43
2019-02-06T20:31:58.842Z,1002.40
2019-02-06T20:33:09.958Z,1002.38
2019-02-06T20:34:21.067Z,1002.36
2019-02-06T20:35:31.680Z,1002.33
2019-02-06T20:36:42.803Z,1002.32
2019-02-06T20:37:53.921Z,1002.31
2019-02-06T20:39:05.038Z,1002.32
2019-02-06T20:40:16.144Z,1002.32
2019-02-06T20:41:27.271Z,1002.42
2019-02-06T20:42:38.388Z,1002.41
2019-02-06T20:43:49.506Z,1002.42
2019-02-06T20:45:00.625Z,1002.39
2019-02-06T20:46:11.746Z,1002.36
2019-02-06T20:47:22.360Z,1002.34
2019-02-06T20:48:33.485Z,1002.32
2019-02-06T20:49:44.626Z,1002.32
2019-02-06T20:50:55.252Z,1002.26
2019-02-06T20:52:06.369Z,1002.18
2019-02-06T20:53:17.483Z,1002.15
2019-02-06T20:54:28.616Z,1002.10
2019-02-06T20:55:39.241Z,1002.12
2019-02-06T20:56:50.359Z,1002.07
2019-02-06T20:58:01.490Z,1002.02
2019-02-06T20:59:12.615Z,1002.01
2019-02-06T21:01:33.958Z,1002.06
2019-02-06T21:02:45.075Z,1002.07
2019-02-06T21:03:56.202Z,1002.09
2019-02-06T21:05:07.307Z,1002.12
2019-02-06T21:06:17.943Z,1002.09
2019-02-06T21:07:29.066Z,1002.08
2019-02-06T21:08:39.689Z,1002.06
2019-02-06T21:09:51.021Z,1002.05
2019-02-06T21:11:01.948Z,1002.03
2019-02-06T21:12:13.064Z,1002.02
2019-02-06T21:13:32.794Z,1002.01
2019-02-06T21:14:36.237Z,1002.00
2019-02-06T21:15:47.813Z,1001.97
2019-02-06T21:16:58.929Z,1002.01
2019-02-06T21:18:10.059Z,1001.95
2019-02-06T21:19:21.188Z,1001.93
2019-02-06T21:20:32.309Z,1001.89
2019-02-06T21:21:42.924Z,1001.85
2019-02-06T21:22:54.042Z,1001.85
2019-02-06T21:24:04.675Z,1001.80
2019-02-06T21:25:15.801Z,1001.79
2019-02-06T21:26:26.424Z,1001.80
2019-02-06T21:27:37.546Z,1001.77
2019-02-06T21:28:48.679Z,1001.78
2019-02-06T21:29:59.804Z,1001.71
2019-02-06T21:31:10.910Z,1001.75
2019-02-06T21:32:22.029Z,1001.76
2019-02-06T21:33:33.165Z,1001.80
2019-02-06T21:34:43.787Z,1001.74
2019-02-06T21:35:54.907Z,1001.70
2019-02-06T21:37:06.023Z,1001.66
2019-02-06T21:38:17.149Z,1001.65
2019-02-06T21:39:28.274Z,1001.69
2019-02-06T21:40:39.405Z,1001.65
2019-02-06T21:41:50.620Z,1001.67
2019-02-06T21:43:01.243Z,1001.65
2019-02-06T21:44:12.364Z,1001.61
2019-02-06T21:45:22.988Z,1001.57
2019-02-06T21:46:33.613Z,1001.58
2019-02-06T21:47:44.738Z,1001.59
2019-02-06T21:48:55.859Z,1001.52
2019-02-06T21:50:06.989Z,1001.48
2019-02-06T21:51:17.605Z,1001.44
2019-02-06T21:52:28.741Z,1001.48
2019-02-06T21:53:39.373Z,1001.45
2019-02-06T21:54:50.499Z,1001.48
2019-02-06T21:56:01.618Z,1001.49
2019-02-06T21:57:12.753Z,1001.47
2019-02-06T21:58:23.387Z,1001.43
2019-02-06T21:59:34.519Z,1001.43
2019-02-06T22:00:45.642Z,1001.44
2019-02-06T22:01:56.754Z,1001.43
2019-02-06T22:03:10.627Z,1001.43
2019-02-06T22:04:19.106Z,1001.39
2019-02-06T22:05:30.227Z,1001.38
2019-02-06T22:06:41.358Z,1001.40
2019-02-06T22:07:52.611Z,1001.39
2019-02-06T22:09:03.737Z,1001.38
2019-02-06T22:10:14.853Z,1001.33
2019-02-06T22:11:25.961Z,1001.35
2019-02-06T22:12:37.068Z,1001.35
2019-02-06T22:13:54.859Z,1001.32
2019-02-06T22:14:58.812Z,1001.33
2019-02-06T22:16:09.932Z,1001.34
2019-02-06T22:17:20.554Z,1001.30
2019-02-06T22:18:31.699Z,1001.30
2019-02-06T22:19:42.819Z,1001.34
2019-02-06T22:20:53.940Z,1001.35
2019-02-06T22:22:05.056Z,1001.33
2019-02-06T22:23:15.689Z,1001.32
2019-02-06T22:24:26.835Z,1001.34
2019-02-06T22:25:38.947Z,1001.30
2019-02-06T22:26:50.071Z,1001.35
2019-02-06T22:28:01.197Z,1001.35
2019-02-06T22:29:12.311Z,1001.34
2019-02-06T22:30:23.443Z,1001.30
2019-02-06T22:31:34.628Z,1001.27
2019-02-06T22:32:45.745Z,1001.26
2019-02-06T22:33:56.366Z,1001.29
2019-02-06T22:35:07.492Z,1001.26
2019-02-06T22:36:18.632Z,1001.28
2019-02-06T22:37:29.757Z,1001.26
2019-02-06T22:38:40.870Z,1001.24
2019-02-06T22:39:51.988Z,1001.24
2019-02-06T22:41:03.096Z,1001.23
2019-02-06T22:42:14.221Z,1001.25
2019-02-06T22:43:25.333Z,1001.27
2019-02-06T22:44:36.456Z,1001.27
2019-02-06T22:45:47.564Z,1001.26
2019-02-06T22:46:58.690Z,1001.28
2019-02-06T22:48:09.802Z,1001.25
2019-02-06T22:49:20.919Z,1001.22
2019-02-06T22:50:32.034Z,1001.21
2019-02-06T22:51:43.160Z,1001.20
2019-02-06T22:52:54.268Z,1001.20
2019-02-06T22:54:05.390Z,1001.16
2019-02-06T22:55:16.622Z,1001.18
2019-02-06T22:56:27.243Z,1001.14
2019-02-06T22:57:38.373Z,1001.14
2019-02-06T22:58:49.479Z,1001.15
2019-02-06T23:00:00.622Z,1001.11
2019-02-06T23:01:11.740Z,1001.14
2019-02-06T23:02:22.356Z,1001.11
2019-02-06T23:03:33.476Z,1001.11
2019-02-06T23:04:44.776Z,1001.09
2019-02-06T23:05:55.895Z,1001.07
2019-02-06T23:07:07.342Z,1001.02
2019-02-06T23:08:18.129Z,1001.00
2019-02-06T23:09:29.249Z,1001.02
2019-02-06T23:10:39.859Z,1001.02
2019-02-06T23:11:50.972Z,1001.02
2019-02-06T23:13:02.085Z,1001.01
2019-02-06T23:14:17.451Z,1001.04